WetterOnline ( https://www.wetteronline.de )

Wetter aktuell Turin

Aktuelles Wetter: Turin / Bric Della Croce (710m)

6-stündlich | Neueste Meldungen
Ortszeit Temperatur Wetter
Di, 27.07. 14:00 23.4° C leicht bewölkt
Di, 27.07. 8:00 18.8° C bewölkt
Di, 27.07. 2:00 19.6° C leicht bewölkt
Mo, 26.07. 20:00 22.4° C leicht bewölkt
Mo, 26.07. 14:00 22.2° C leicht bewölkt
Mo, 26.07. 8:00 18.4° C leicht bewölkt
Mo, 26.07. 2:00 19.0° C bewölkt
So, 25.07. 20:00 23.6° C leichte Gewitter
Ortszeit Temperatur Wetter
Di, 27.07. 15:00 24.0° C wolkig
Di, 27.07. 14:55 24° C bewölkt
Di, 27.07. 14:00 23.4° C leicht bewölkt
Di, 27.07. 13:55 23° C leicht bewölkt
Di, 27.07. 13:00 21.0° C wolkig
Di, 27.07. 12:55 21° C leicht bewölkt
Di, 27.07. 12:00 20.6° C wolkig
Di, 27.07. 11:55 21° C leicht bewölkt
Di, 27.07. 11:00 20.0° C wolkig
Ortszeit Relative Feuchte Sichtweite
Di, 27.07. 14:00 87% 20 km
Di, 27.07. 8:00 100% 15 km
Di, 27.07. 2:00 100% 20 km
Mo, 26.07. 20:00 100% 20 km
Mo, 26.07. 14:00 84% 25 km
Mo, 26.07. 8:00 100% 30 km
Mo, 26.07. 2:00 100% 20 km
So, 25.07. 20:00 100% 20 km
Ortszeit Relative Feuchte Sichtweite
Di, 27.07. 15:00 85% 15 km
Di, 27.07. 14:55 83% >10 km
Di, 27.07. 14:00 87% 20 km
Di, 27.07. 13:55 89% >10 km
Di, 27.07. 13:00 100% 15 km
Di, 27.07. 12:55 100% >10 km
Di, 27.07. 12:00 100% 15 km
Di, 27.07. 11:55 100% >10 km
Di, 27.07. 11:00 100% 15 km
Ortszeit Niederschlagsmenge Niederschlagsart
Di, 27.07. 14:00 0.0 l/m2 in 6 Std. -
Di, 27.07. 8:00 3 l/m2 in 12 Std. -
Di, 27.07. 2:00 3 l/m2 in 6 Std. Regen
Mo, 26.07. 20:00 0.0 l/m2 in 12 Std. Gewitter
Mo, 26.07. 14:00 0.0 l/m2 in 6 Std. -
Mo, 26.07. 8:00 11 l/m2 in 12 Std. -
Mo, 26.07. 2:00 11 l/m2 in 6 Std. Gewitter, Regen
So, 25.07. 20:00 0.0 l/m2 in 12 Std. Gewitter
Ortszeit Niederschlagsmenge Niederschlagsart
Di, 27.07. 15:00 keine Meldung -
Di, 27.07. 14:55 keine Meldung -
Di, 27.07. 14:00 keine Meldung -
Di, 27.07. 13:55 keine Meldung -
Di, 27.07. 13:00 keine Meldung -
Di, 27.07. 12:55 keine Meldung -
Di, 27.07. 12:00 keine Meldung -
Di, 27.07. 11:55 keine Meldung -
Di, 27.07. 11:00 keine Meldung -
Ortszeit Stärke Spitze Richtung
km/h Bft. km/h Grad Sektor
Di, 27.07. 14:00 0 0 - - -
Di, 27.07. 8:00 0 0 - - -
Di, 27.07. 2:00 4 1 - 10° N
Mo, 26.07. 20:00 9 2 - 100° O
Mo, 26.07. 14:00 6 1 - 80° O
Mo, 26.07. 8:00 0 0 - - -
Mo, 26.07. 2:00 7 2 - 350° N
So, 25.07. 20:00 15 3 - 90° O
Ortszeit Stärke Spitze Richtung
km/h Bft. km/h Grad Sektor
Di, 27.07. 15:00 6 1 - 120° SO
Di, 27.07. 14:55 6 1 - 120° SO
Di, 27.07. 14:00 0 0 - - -
Di, 27.07. 13:55 0 0 - - -
Di, 27.07. 13:00 0 0 - - -
Di, 27.07. 12:55 0 0 - - -
Di, 27.07. 12:00 0 0 - - -
Di, 27.07. 11:55 0 0 - - -
Di, 27.07. 11:00 0 0 - - -
Ortszeit Untergrenze Bedeckung Gattung
total tief tief mittel hoch
Di, 27.07. 14:00 600 m 4/8 4/8 Cu - -
Di, 27.07. 8:00 900 m 7/8 7/8 Sc - -
Di, 27.07. 2:00 990 m 6/8 4/8 Cb As -
Mo, 26.07. 20:00 3000 m 4/8 4/8 - Ac -
Mo, 26.07. 14:00 900 m 5/8 3/8 Cu Ac -
Mo, 26.07. 8:00 900 m 3/8 3/8 Sc - -
Mo, 26.07. 2:00 900 m 8/8 5/8 Cb As -
So, 25.07. 20:00 600 m 7/8 6/8 Cb As -
Ortszeit Bedeckungsgrad in Achtel und Wolkenuntergrenze
Di, 27.07. 15:00 5(600m)
Di, 27.07. 14:55 5-7(600m)
Di, 27.07. 14:00 4(600m)
Di, 27.07. 13:55 3-4(600m)
Di, 27.07. 13:00 3(390m) 4(600m)
Di, 27.07. 12:55 3-4(390m) 3-4(600m)
Di, 27.07. 12:00 3(390m) 3(600m)
Di, 27.07. 11:55 3-4(390m) 3-4(600m)
Di, 27.07. 11:00 4(390m) 3(600m)
Ortszeit Stationsdruck (hPa) Tendenz (hPa in 3 Std.)
Di, 27.07. 14:00 935 0,0
Di, 27.07. 8:00 935 + 0,1
Di, 27.07. 2:00 935 + 1,4
Mo, 26.07. 20:00 933 0,0
Mo, 26.07. 14:00 934 + 0,5
Mo, 26.07. 8:00 932 + 0,7
Mo, 26.07. 2:00 931 + 0,7
So, 25.07. 20:00 929 - 0,3
Ortszeit Stationsdruck (hPa) Tendenz (hPa in 3 Std.)
Di, 27.07. 15:00 935 - 0,2
Di, 27.07. 14:55 - keine Meldung
Di, 27.07. 14:00 935 0,0
Di, 27.07. 13:55 - keine Meldung
Di, 27.07. 13:00 935 0,0
Di, 27.07. 12:55 - keine Meldung
Di, 27.07. 12:00 935 + 0,2
Di, 27.07. 11:55 - keine Meldung
Di, 27.07. 11:00 935 + 0,2
Ortszeit Schneehöhe (cm)
Di, 27.07. 14:00 -
Di, 27.07. 8:00 0
Di, 27.07. 2:00 -
Mo, 26.07. 20:00 -
Mo, 26.07. 14:00 -
Mo, 26.07. 8:00 0
Mo, 26.07. 2:00 -
So, 25.07. 20:00 -
Ortszeit Schneehöhe (cm)
Di, 27.07. 15:00 -
Di, 27.07. 14:55 -
Di, 27.07. 14:00 -
Di, 27.07. 13:55 -
Di, 27.07. 13:00 -
Di, 27.07. 12:55 -
Di, 27.07. 12:00 -
Di, 27.07. 11:55 -
Di, 27.07. 11:00 -
Link zu dieser Seite / Seite empfehlen

Das Wetter in ...